Time;durP1;ratioP1;P1;durP2;ratioP2;P2;SDS_P1;SDS_P2;PMS_P1;PMS_P2;Temp;Humidity;BMP_temperature;BMP_pressure;BME280_temperature;BME280_humidity;BME280_pressure;Samples;Min_cycle;Max_cycle;Signal;HPM_P1;HPM_P2
2023/02/05 00:00:24;;;;;;;7.35;1.60;;;6.20;99.90;;;;;;5026378;28;20405;-77
2023/02/05 00:02:50;;;;;;;8.27;2.00;;;6.20;99.90;;;;;;5027800;28;20033;-77
2023/02/05 00:05:15;;;;;;;12.30;2.25;;;6.20;99.90;;;;;;5019058;28;20091;-78
2023/02/05 00:07:41;;;;;;;5.82;1.50;;;6.20;99.90;;;;;;5038505;28;20055;-77
2023/02/05 00:10:07;;;;;;;6.72;2.22;;;6.10;99.90;;;;;;5029476;28;20086;-77
2023/02/05 00:12:32;;;;;;;8.93;1.98;;;6.10;99.90;;;;;;5028420;28;20052;-76
2023/02/05 00:14:58;;;;;;;4.53;1.38;;;6.20;99.90;;;;;;5021715;28;20021;-77
2023/02/05 00:17:24;;;;;;;8.20;1.88;;;6.10;99.90;;;;;;5039484;28;20441;-78
2023/02/05 00:19:49;;;;;;;7.45;1.42;;;6.10;99.90;;;;;;5038984;28;20135;-77
2023/02/05 00:22:15;;;;;;;7.45;1.90;;;6.20;99.90;;;;;;5037434;28;20033;-77
2023/02/05 00:24:41;;;;;;;7.15;2.10;;;6.10;99.90;;;;;;5036663;28;20525;-77
2023/02/05 00:27:08;;;;;;;9.15;1.92;;;6.20;99.90;;;;;;5023007;28;20049;-77
2023/02/05 00:29:34;;;;;;;9.90;2.08;;;6.20;99.90;;;;;;5038423;28;20033;-76
2023/02/05 00:31:59;;;;;;;10.57;2.35;;;6.20;99.90;;;;;;5022216;28;20493;-76
2023/02/05 00:34:25;;;;;;;7.93;2.13;;;6.20;99.90;;;;;;5037760;28;20493;-77
2023/02/05 00:36:51;;;;;;;10.60;2.33;;;6.20;99.90;;;;;;5036094;28;20120;-78
2023/02/05 00:39:17;;;;;;;8.68;2.95;;;6.20;99.90;;;;;;5034379;28;20036;-78
2023/02/05 00:41:46;;;;;;;8.20;1.90;;;6.20;99.90;;;;;;5050508;28;20021;-76
2023/02/05 00:44:11;;;;;;;9.43;1.80;;;6.20;99.90;;;;;;5033386;28;20414;-76
2023/02/05 00:46:37;;;;;;;8.55;2.10;;;6.20;99.90;;;;;;5022647;28;20025;-77
2023/02/05 00:49:03;;;;;;;9.68;2.03;;;6.20;99.90;;;;;;5043927;28;20068;-77
2023/02/05 00:51:28;;;;;;;7.45;1.65;;;6.20;99.90;;;;;;5035825;28;20041;-76
2023/02/05 00:53:54;;;;;;;8.10;1.55;;;6.20;99.90;;;;;;5046688;28;20102;-77
2023/02/05 00:56:20;;;;;;;9.13;1.83;;;6.10;99.90;;;;;;5046578;28;20482;-77
2023/02/05 00:58:48;;;;;;;9.15;2.30;;;6.20;99.90;;;;;;5045350;28;20068;-77
2023/02/05 01:01:14;;;;;;;5.10;1.52;;;6.20;99.90;;;;;;5023128;28;20048;-78
2023/02/05 01:03:41;;;;;;;6.70;1.65;;;6.20;99.90;;;;;;5026161;28;20092;-76
2023/02/05 01:06:07;;;;;;;11.18;2.17;;;6.20;99.90;;;;;;5037712;28;20526;-77
2023/02/05 01:08:33;;;;;;;6.22;1.88;;;6.10;99.90;;;;;;5039894;28;20021;-77
2023/02/05 01:10:59;;;;;;;7.10;2.40;;;6.10;99.90;;;;;;5047387;28;20036;-76
2023/02/05 01:13:25;;;;;;;5.15;1.58;;;6.20;99.90;;;;;;5038861;28;20037;-77
2023/02/05 01:15:50;;;;;;;5.05;1.35;;;6.20;99.90;;;;;;5031718;28;20033;-77
2023/02/05 01:18:17;;;;;;;11.18;2.47;;;6.20;99.90;;;;;;5037964;28;20482;-76
2023/02/05 01:20:43;;;;;;;5.85;1.50;;;6.20;99.90;;;;;;5038574;28;20029;-78
2023/02/05 01:23:09;;;;;;;7.90;1.38;;;6.20;99.90;;;;;;5025585;28;20029;-77
2023/02/05 01:25:35;;;;;;;7.18;2.33;;;6.20;99.90;;;;;;5030009;28;20060;-77
2023/02/05 01:28:01;;;;;;;10.32;1.77;;;6.30;99.90;;;;;;5036600;28;20049;-77
2023/02/05 01:30:26;;;;;;;8.68;1.42;;;6.20;99.90;;;;;;5046962;28;20462;-77
2023/02/05 01:32:52;;;;;;;9.75;2.25;;;6.30;99.90;;;;;;5042616;28;20025;-76
2023/02/05 01:35:18;;;;;;;6.90;1.88;;;6.30;99.90;;;;;;5027729;28;20149;-76
2023/02/05 01:37:43;;;;;;;6.75;1.88;;;6.30;99.90;;;;;;5040378;28;20028;-77
2023/02/05 01:40:14;;;;;;;6.55;1.83;;;6.30;99.90;;;;;;5048728;28;20037;-77
2023/02/05 01:42:40;;;;;;;;;;;6.30;99.90;;;;;;5039733;28;20413;-77
2023/02/05 01:45:21;;;;;;;9.40;2.63;;;6.40;99.90;;;;;;5039081;28;20008;-77
2023/02/05 01:47:53;;;;;;;9.30;3.03;;;6.40;99.90;;;;;;5035494;28;20022;-76
2023/02/05 01:50:34;;;;;;;8.85;3.13;;;6.40;99.90;;;;;;5044790;28;20524;-78
2023/02/05 01:53:06;;;;;;;7.72;2.33;;;6.40;99.90;;;;;;5041904;28;20028;-76
2023/02/05 01:55:32;;;;;;;9.02;3.00;;;6.40;99.90;;;;;;5034264;28;20500;-77
2023/02/05 01:57:59;;;;;;;8.00;2.25;;;6.40;99.90;;;;;;5042883;28;20478;-76
2023/02/05 02:00:25;;;;;;;8.18;2.53;;;6.50;99.90;;;;;;5036736;28;20079;-77
2023/02/05 02:02:52;;;;;;;12.70;3.22;;;6.50;99.90;;;;;;5041118;28;20028;-77
2023/02/05 02:05:18;;;;;;;7.82;3.05;;;6.60;99.90;;;;;;5037897;28;20021;-77
2023/02/05 02:07:44;;;;;;;16.20;5.82;;;6.60;99.90;;;;;;5037921;28;20049;-76
2023/02/05 02:10:13;;;;;;;19.30;6.38;;;6.60;99.90;;;;;;5045697;28;20064;-76
2023/02/05 02:12:41;;;;;;;25.45;10.32;;;6.60;99.90;;;;;;5043386;28;20025;-78
2023/02/05 02:15:14;;;;;;;26.52;8.27;;;6.70;99.90;;;;;;5040308;28;20067;-77
2023/02/05 02:17:45;;;;;;;27.35;10.98;;;6.70;99.90;;;;;;5037553;28;20167;-77
2023/02/05 02:20:21;;;;;;;29.08;11.27;;;6.70;99.90;;;;;;5042182;28;20354;-78
2023/02/05 02:23:18;;;;;;;31.60;12.32;;;6.60;99.90;;;;;;5038012;28;20018;-78
2023/02/05 02:26:06;;;;;;;32.72;13.80;;;6.70;99.90;;;;;;5040141;28;20121;-77
2023/02/05 02:28:44;;;;;;;30.80;10.98;;;6.80;99.90;;;;;;5041864;28;20494;-77
2023/02/05 02:31:18;;;;;;;24.17;10.50;;;6.70;99.90;;;;;;5041637;28;20032;-77
2023/02/05 02:33:51;;;;;;;20.50;9.10;;;6.70;99.90;;;;;;5026872;28;20065;-77
2023/02/05 02:36:31;;;;;;;22.90;8.48;;;6.70;99.90;;;;;;5045846;28;20025;-77
2023/02/05 02:39:10;;;;;;;18.88;8.75;;;6.70;99.90;;;;;;5039469;28;20030;-77
2023/02/05 02:41:46;;;;;;;18.30;7.78;;;6.60;99.90;;;;;;5024880;28;20087;-77
2023/02/05 02:44:35;;;;;;;22.20;8.45;;;6.60;99.90;;;;;;5037169;28;20026;-77
2023/02/05 02:47:08;;;;;;;31.13;13.88;;;6.70;99.90;;;;;;5046884;28;20023;-77
2023/02/05 02:49:39;;;;;;;27.23;12.23;;;6.80;99.90;;;;;;5019469;28;20284;-77
2023/02/05 02:52:06;;;;;;;;;;;6.70;99.90;;;;;;5045801;28;20535;-76
2023/02/05 02:54:34;;;;;;;37.17;15.93;;;6.70;99.90;;;;;;5045106;28;19940;-76
2023/02/05 02:57:03;;;;;;;36.95;17.58;;;6.80;99.90;;;;;;5034905;28;20540;-76
2023/02/05 02:59:32;;;;;;;40.15;19.20;;;6.80;99.90;;;;;;5043353;28;20398;-76
2023/02/05 03:02:01;;;;;;;38.67;19.75;;;6.90;99.90;;;;;;5022818;28;20533;-77
2023/02/05 03:04:35;;;;;;;35.90;17.33;;;6.90;99.90;;;;;;5027538;28;20482;-76
2023/02/05 03:07:10;;;;;;;32.35;16.15;;;6.80;99.90;;;;;;5023416;28;20021;-77
2023/02/05 03:09:51;;;;;;;31.25;15.88;;;6.80;99.90;;;;;;5023018;28;20112;-76
2023/02/05 03:12:19;;;;;;;37.72;18.40;;;6.80;99.90;;;;;;5037495;28;20029;-77
2023/02/05 03:14:45;;;;;;;39.78;20.73;;;6.90;99.90;;;;;;5037217;28;20021;-77
2023/02/05 03:17:17;;;;;;;35.58;18.35;;;6.90;99.90;;;;;;5020017;28;20094;-76
2023/02/05 03:19:45;;;;;;;30.77;17.13;;;6.90;99.90;;;;;;5025589;28;20489;-77
2023/02/05 03:22:11;;;;;;;31.02;15.55;;;6.90;99.90;;;;;;5034298;28;20091;-77
2023/02/05 03:24:37;;;;;;;36.45;16.85;;;6.90;99.90;;;;;;5027237;28;20056;-76
2023/02/05 03:27:03;;;;;;;37.53;20.27;;;7.00;99.90;;;;;;5041092;28;20029;-76
2023/02/05 03:29:34;;;;;;;47.60;24.60;;;7.00;99.90;;;;;;5033525;28;20029;-77
2023/02/05 03:32:23;;;;;;;52.85;26.60;;;7.00;99.90;;;;;;5023068;28;20033;-76
2023/02/05 03:34:57;;;;;;;42.80;23.85;;;7.10;99.90;;;;;;5038055;28;20037;-76
2023/02/05 03:37:56;;;;;;;43.20;23.95;;;7.00;99.90;;;;;;5018527;28;20021;-76
2023/02/05 03:40:36;;;;;;;47.10;25.02;;;7.00;99.90;;;;;;5021963;28;20040;-77
2023/02/05 03:43:24;;;;;;;45.03;26.02;;;7.00;99.90;;;;;;5028726;28;20028;-76
2023/02/05 03:45:50;;;;;;;45.30;26.10;;;7.00;99.90;;;;;;5034295;28;20470;-76
2023/02/05 03:50:36;;;;;;;49.45;26.38;;;7.00;99.90;;;;;;5065878;28;20420;-78
2023/02/05 03:53:18;;;;;;;51.17;27.80;;;7.00;99.90;;;;;;5059772;28;20108;-78
2023/02/05 03:55:50;;;;;;;50.40;27.88;;;7.00;99.90;;;;;;5051792;28;20029;-79
2023/02/05 03:58:26;;;;;;;46.75;26.48;;;7.00;99.90;;;;;;5039487;28;20065;-78
2023/02/05 04:00:53;;;;;;;51.25;28.73;;;7.00;99.90;;;;;;5056364;28;20031;-77
2023/02/05 04:03:19;;;;;;;45.60;28.02;;;7.00;99.90;;;;;;5043277;28;20028;-78
2023/02/05 04:05:45;;;;;;;39.72;23.02;;;7.00;99.90;;;;;;5059834;28;20021;-78
2023/02/05 04:08:11;;;;;;;49.13;25.85;;;6.90;99.90;;;;;;5045759;28;20454;-79
2023/02/05 04:10:43;;;;;;;46.97;25.77;;;6.90;99.90;;;;;;5064855;28;20037;-77
2023/02/05 04:13:08;;;;;;;45.35;22.88;;;7.00;99.90;;;;;;5054937;28;20133;-78
2023/02/05 04:15:35;;;;;;;45.08;26.83;;;6.90;99.90;;;;;;5048032;28;20033;-80
2023/02/05 04:18:06;;;;;;;45.23;24.17;;;6.90;99.90;;;;;;5032380;28;20031;-78
2023/02/05 04:20:31;;;;;;;40.70;23.25;;;6.90;99.90;;;;;;5059600;28;20388;-79
2023/02/05 04:22:58;;;;;;;42.05;24.02;;;6.90;99.90;;;;;;5057100;28;20021;-78
2023/02/05 04:25:25;;;;;;;42.05;24.45;;;6.90;99.90;;;;;;5058030;28;20411;-80
2023/02/05 04:27:53;;;;;;;41.67;23.17;;;6.90;99.90;;;;;;5067945;28;20124;-78
2023/02/05 04:30:19;;;;;;;41.58;22.67;;;6.90;99.90;;;;;;5057604;28;20127;-78
2023/02/05 04:32:46;;;;;;;34.00;20.50;;;6.90;99.90;;;;;;5043489;28;20063;-76
2023/02/05 04:35:14;;;;;;;39.67;21.58;;;6.90;99.90;;;;;;5042291;28;20087;-78
2023/02/05 04:37:40;;;;;;;37.35;21.00;;;6.80;99.90;;;;;;5058469;28;20100;-78
2023/02/05 04:40:08;;;;;;;39.50;22.23;;;6.90;99.90;;;;;;5059899;28;20061;-78
2023/02/05 04:42:34;;;;;;;35.95;19.98;;;6.80;99.90;;;;;;5058429;28;20071;-78
2023/02/05 04:44:59;;;;;;;35.67;20.17;;;6.80;99.90;;;;;;5059626;28;20480;-78
2023/02/05 04:47:25;;;;;;;30.95;18.23;;;6.80;99.90;;;;;;5058652;28;20020;-78
2023/02/05 04:49:51;;;;;;;30.42;17.08;;;6.80;99.90;;;;;;5060588;28;20489;-78
2023/02/05 04:52:16;;;;;;;34.15;18.02;;;6.80;99.90;;;;;;5062744;28;20033;-77
2023/02/05 04:54:42;;;;;;;36.17;20.15;;;6.80;99.90;;;;;;5058774;28;20074;-77
2023/02/05 04:57:07;;;;;;;34.30;18.08;;;6.80;99.90;;;;;;5059430;28;20089;-77
2023/02/05 04:59:33;;;;;;;37.70;20.20;;;6.80;99.90;;;;;;5052943;28;20094;-79
2023/02/05 05:01:59;;;;;;;35.47;19.92;;;6.80;99.90;;;;;;5044256;28;20017;-77
2023/02/05 05:04:25;;;;;;;36.70;18.85;;;6.80;99.90;;;;;;5048455;28;20456;-78
2023/02/05 05:06:51;;;;;;;34.55;18.35;;;6.80;99.90;;;;;;5044170;28;20473;-78
2023/02/05 05:09:19;;;;;;;30.85;17.40;;;6.80;99.90;;;;;;5044855;28;20037;-78
2023/02/05 05:11:45;;;;;;;30.02;17.63;;;6.80;99.90;;;;;;5046534;28;20021;-78
2023/02/05 05:14:11;;;;;;;33.38;17.55;;;6.80;99.90;;;;;;5043639;28;20025;-77
2023/02/05 05:16:36;;;;;;;29.45;17.38;;;6.80;99.90;;;;;;5040122;28;20048;-77
2023/02/05 05:19:03;;;;;;;35.35;18.20;;;6.80;99.90;;;;;;5060508;28;20103;-78
2023/02/05 05:21:28;;;;;;;32.30;17.17;;;6.80;99.90;;;;;;5042528;28;20040;-78
2023/02/05 05:23:54;;;;;;;32.50;18.30;;;6.80;99.90;;;;;;5043683;28;20025;-78
2023/02/05 05:26:20;;;;;;;31.92;18.30;;;6.80;99.90;;;;;;5043305;28;20040;-77
2023/02/05 05:28:45;;;;;;;33.00;17.67;;;6.80;99.90;;;;;;5045710;28;20032;-78
2023/02/05 05:31:18;;;;;;;30.23;17.92;;;6.80;99.90;;;;;;5044963;28;20025;-78
2023/02/05 05:33:44;;;;;;;35.25;18.15;;;6.80;99.90;;;;;;5033645;28;20025;-76
2023/02/05 05:36:10;;;;;;;30.08;17.08;;;6.80;99.90;;;;;;5040618;28;20030;-78
2023/02/05 05:38:36;;;;;;;29.40;16.85;;;6.80;99.90;;;;;;5027165;28;20032;-78
2023/02/05 05:43:47;;;;;;;29.52;16.35;;;6.70;99.90;;;;;;5047364;28;20036;-77
2023/02/05 05:46:22;;;;;;;31.48;17.52;;;6.80;99.90;;;;;;5044061;28;20436;-79
2023/02/05 05:48:56;;;;;;;25.98;15.57;;;6.70;99.90;;;;;;5033163;28;20405;-78
2023/02/05 05:51:24;;;;;;;27.50;16.65;;;6.70;99.90;;;;;;5042594;28;20400;-79
2023/02/05 05:53:50;;;;;;;28.75;16.75;;;6.70;99.90;;;;;;5042541;28;20021;-78
2023/02/05 05:56:16;;;;;;;25.23;15.20;;;6.70;99.90;;;;;;5060982;28;22211;-78
2023/02/05 05:58:42;;;;;;;25.95;15.70;;;6.70;99.90;;;;;;5043888;28;20462;-77
2023/02/05 06:01:09;;;;;;;25.10;14.27;;;6.70;99.90;;;;;;5040082;28;20033;-78
2023/02/05 06:03:35;;;;;;;23.05;14.98;;;6.60;99.90;;;;;;5044603;28;20032;-78
2023/02/05 06:06:03;;;;;;;23.65;14.85;;;6.60;99.90;;;;;;5045747;28;20028;-77
2023/02/05 06:08:28;;;;;;;24.13;14.85;;;6.60;99.90;;;;;;5044022;28;20037;-77
2023/02/05 06:10:54;;;;;;;24.10;16.00;;;6.60;99.90;;;;;;5043060;28;20071;-77
2023/02/05 06:13:20;;;;;;;24.45;15.60;;;6.60;99.90;;;;;;5038264;28;20025;-78
2023/02/05 06:15:47;;;;;;;27.65;16.50;;;6.60;99.90;;;;;;5048526;28;20028;-77
2023/02/05 06:18:14;;;;;;;23.65;15.88;;;6.60;99.90;;;;;;5044160;28;20078;-77
2023/02/05 06:20:40;;;;;;;23.35;15.77;;;6.60;99.90;;;;;;5042634;28;20072;-77
2023/02/05 06:23:06;;;;;;;24.20;15.13;;;6.60;99.90;;;;;;5046556;28;20049;-79
2023/02/05 06:25:32;;;;;;;23.90;14.65;;;6.60;99.90;;;;;;5048876;28;20051;-77
2023/02/05 06:27:57;;;;;;;22.55;13.45;;;6.60;99.90;;;;;;5061226;28;20452;-78
2023/02/05 06:30:23;;;;;;;20.58;12.98;;;6.60;99.90;;;;;;5042319;28;20069;-77
2023/02/05 06:32:49;;;;;;;24.25;13.10;;;6.60;99.90;;;;;;5045770;28;20389;-76
2023/02/05 06:35:15;;;;;;;19.38;10.18;;;6.60;99.90;;;;;;5045056;28;20107;-77
2023/02/05 06:37:41;;;;;;;17.05;9.18;;;6.60;99.90;;;;;;5047755;28;20124;-77
2023/02/05 06:40:07;;;;;;;13.80;7.93;;;6.70;99.90;;;;;;5043759;28;20024;-77
2023/02/05 06:42:33;;;;;;;12.02;7.18;;;6.60;99.90;;;;;;5034516;28;20466;-77
2023/02/05 06:44:58;;;;;;;10.02;5.03;;;6.70;99.90;;;;;;5031644;28;20043;-76
2023/02/05 06:47:24;;;;;;;8.32;4.90;;;6.60;99.90;;;;;;5044065;28;20495;-77
2023/02/05 06:49:50;;;;;;;6.80;2.35;;;6.50;99.90;;;;;;5048528;28;20054;-77
2023/02/05 06:52:15;;;;;;;2.72;0.80;;;6.40;99.90;;;;;;5017024;28;20021;-77
2023/02/05 06:54:42;;;;;;;2.55;0.50;;;6.40;99.90;;;;;;5042155;28;20124;-77
2023/02/05 06:57:08;;;;;;;5.10;0.55;;;6.30;99.90;;;;;;5044386;28;20064;-77
2023/02/05 06:59:34;;;;;;;4.07;0.60;;;6.20;99.90;;;;;;5003690;28;20212;-76
2023/02/05 07:02:00;;;;;;;4.00;0.28;;;6.20;99.90;;;;;;5046835;28;20549;-78
2023/02/05 07:04:25;;;;;;;2.95;0.20;;;6.10;99.90;;;;;;5043393;28;20066;-76
2023/02/05 07:06:53;;;;;;;2.95;0.20;;;6.10;99.90;;;;;;5028980;28;20397;-77
2023/02/05 07:09:20;;;;;;;2.67;0.25;;;6.10;99.90;;;;;;5014319;28;20045;-76
2023/02/05 07:11:45;;;;;;;5.55;0.20;;;6.00;99.90;;;;;;5041197;28;20080;-76
2023/02/05 07:14:11;;;;;;;3.28;0.20;;;6.00;99.90;;;;;;5039599;28;20458;-77
2023/02/05 07:16:37;;;;;;;5.32;0.30;;;6.00;99.90;;;;;;5041515;28;20028;-78
2023/02/05 07:19:02;;;;;;;5.07;0.20;;;6.00;99.90;;;;;;5041631;28;20028;-78
2023/02/05 07:21:28;;;;;;;5.20;0.20;;;6.00;99.90;;;;;;5058367;28;20124;-77
2023/02/05 07:23:54;;;;;;;10.45;0.40;;;5.90;99.90;;;;;;5043955;28;20048;-78
2023/02/05 07:26:20;;;;;;;3.50;0.20;;;5.90;99.90;;;;;;5041378;28;20077;-77
2023/02/05 07:28:45;;;;;;;4.05;0.10;;;5.90;99.90;;;;;;5041575;28;20025;-77
2023/02/05 07:31:15;;;;;;;6.43;0.13;;;5.90;99.90;;;;;;5041369;28;20240;-78
2023/02/05 07:33:43;;;;;;;2.90;0.10;;;5.90;99.90;;;;;;5031526;28;20032;-78
2023/02/05 07:36:10;;;;;;;2.78;0.13;;;5.90;99.90;;;;;;5043351;28;20037;-77
2023/02/05 07:38:36;;;;;;;6.63;0.30;;;5.90;99.90;;;;;;5042082;28;20404;-78
2023/02/05 07:41:03;;;;;;;5.05;0.20;;;5.90;99.90;;;;;;5041449;28;20048;-76
2023/02/05 07:43:29;;;;;;;5.32;0.20;;;5.90;99.90;;;;;;5043395;28;20060;-77
2023/02/05 07:46:00;;;;;;;3.67;0.20;;;5.90;99.90;;;;;;5041273;28;20071;-78
2023/02/05 07:48:25;;;;;;;6.07;0.20;;;5.90;99.90;;;;;;5026625;28;20046;-77
2023/02/05 07:50:51;;;;;;;7.53;0.50;;;5.90;99.90;;;;;;5047682;28;20685;-77
2023/02/05 07:53:17;;;;;;;7.43;0.28;;;5.90;99.90;;;;;;5043167;28;20057;-78
2023/02/05 07:55:43;;;;;;;6.47;0.40;;;6.00;99.90;;;;;;5044123;28;20037;-76
2023/02/05 07:58:09;;;;;;;10.85;0.40;;;6.00;99.90;;;;;;5029339;28;20029;-78
2023/02/05 08:00:35;;;;;;;9.13;0.30;;;6.00;99.90;;;;;;5041858;28;20049;-79
2023/02/05 08:03:01;;;;;;;8.88;0.40;;;6.10;99.90;;;;;;5041172;28;20409;-77
2023/02/05 08:05:27;;;;;;;11.23;0.40;;;6.10;99.90;;;;;;5040896;28;20473;-77
2023/02/05 08:07:53;;;;;;;6.47;0.43;;;6.10;99.90;;;;;;5038619;28;20030;-77
2023/02/05 08:10:18;;;;;;;7.85;0.32;;;6.10;99.90;;;;;;5039666;28;20041;-77
2023/02/05 08:12:44;;;;;;;6.93;0.68;;;6.20;99.90;;;;;;5022655;28;20048;-77
2023/02/05 08:15:11;;;;;;;6.90;0.40;;;6.20;99.90;;;;;;5036548;28;20013;-76
2023/02/05 08:17:37;;;;;;;6.78;0.47;;;6.20;99.90;;;;;;5039974;28;20132;-76
2023/02/05 08:20:06;;;;;;;9.55;0.77;;;6.20;99.90;;;;;;5039261;28;20545;-77
2023/02/05 08:22:37;;;;;;;8.57;0.30;;;6.20;99.90;;;;;;5040890;28;20033;-76
2023/02/05 08:25:05;;;;;;;6.40;0.30;;;6.20;99.90;;;;;;5036522;28;20108;-77
2023/02/05 08:27:32;;;;;;;5.25;0.20;;;6.20;99.90;;;;;;5038833;28;20028;-76
2023/02/05 08:29:58;;;;;;;4.07;0.20;;;6.20;99.90;;;;;;5045953;28;20056;-77
2023/02/05 08:32:23;;;;;;;5.55;0.20;;;6.20;99.90;;;;;;5044416;28;20087;-76
2023/02/05 08:34:49;;;;;;;7.68;0.20;;;6.20;99.90;;;;;;5039661;28;20460;-77
2023/02/05 08:37:15;;;;;;;2.75;0.10;;;6.30;99.90;;;;;;5042670;28;20033;-77
2023/02/05 08:39:41;;;;;;;4.93;0.20;;;6.20;99.90;;;;;;5043116;28;20124;-77
2023/02/05 08:42:06;;;;;;;6.72;0.40;;;6.20;99.90;;;;;;5040900;28;20464;-78
2023/02/05 08:44:32;;;;;;;9.75;0.38;;;6.20;99.90;;;;;;5031931;28;20029;-77
2023/02/05 08:46:58;;;;;;;4.60;0.22;;;6.20;99.90;;;;;;5045478;28;20112;-76
2023/02/05 08:49:24;;;;;;;6.55;0.30;;;6.20;99.90;;;;;;5046744;28;20640;-76
2023/02/05 08:51:50;;;;;;;5.65;0.25;;;6.20;99.90;;;;;;5016755;28;20025;-77
2023/02/05 08:54:16;;;;;;;3.85;0.20;;;6.20;99.90;;;;;;5043989;28;20108;-77
2023/02/05 08:56:43;;;;;;;6.57;0.30;;;6.20;99.90;;;;;;5026062;28;20044;-77
2023/02/05 08:59:10;;;;;;;8.52;0.35;;;6.20;99.90;;;;;;5044081;28;20355;-77
2023/02/05 09:01:39;;;;;;;10.13;0.65;;;6.20;99.90;;;;;;5045375;28;20029;-77
2023/02/05 09:04:06;;;;;;;7.60;0.20;;;6.20;99.90;;;;;;5026566;28;20056;-77
2023/02/05 09:06:32;;;;;;;7.80;0.50;;;6.20;99.90;;;;;;5044244;28;20179;-77
2023/02/05 09:08:59;;;;;;;8.55;0.63;;;6.30;99.90;;;;;;5049444;28;20044;-77
2023/02/05 09:11:29;;;;;;;12.45;0.63;;;6.30;99.90;;;;;;5050009;28;20033;-76
2023/02/05 09:13:55;;;;;;;16.73;1.05;;;6.40;99.90;;;;;;5043278;28;20029;-77
2023/02/05 09:16:21;;;;;;;11.65;0.50;;;6.40;99.90;;;;;;5050498;28;20437;-77
2023/02/05 09:18:47;;;;;;;13.57;0.70;;;6.50;99.90;;;;;;5043768;28;20038;-77
2023/02/05 09:21:13;;;;;;;14.35;0.60;;;6.50;99.90;;;;;;5042276;28;20048;-77
2023/02/05 09:23:38;;;;;;;10.00;0.88;;;6.60;99.90;;;;;;5032759;28;20032;-76
2023/02/05 09:26:05;;;;;;;10.00;0.57;;;6.60;99.90;;;;;;5032761;28;20120;-77
2023/02/05 09:28:31;;;;;;;8.82;0.47;;;6.60;99.90;;;;;;5017585;28;20539;-78
2023/02/05 09:30:57;;;;;;;12.18;0.73;;;6.60;99.90;;;;;;5042756;28;20029;-79
2023/02/05 09:33:23;;;;;;;11.07;0.73;;;6.60;99.90;;;;;;5043228;28;20041;-78
2023/02/05 09:35:49;;;;;;;9.68;1.15;;;6.70;99.90;;;;;;5046479;28;20021;-79
2023/02/05 09:38:16;;;;;;;12.90;0.60;;;6.80;99.90;;;;;;5048747;28;20033;-78
2023/02/05 09:40:42;;;;;;;13.27;0.60;;;6.80;99.90;;;;;;5046430;28;20017;-79
2023/02/05 09:43:34;;;;;;;10.57;0.40;;;6.70;99.90;;;;;;5060566;28;20477;-78
2023/02/05 09:46:09;;;;;;;5.68;0.60;;;6.80;99.90;;;;;;5009293;28;20029;-77
2023/02/05 09:48:42;;;;;;;10.25;0.60;;;6.80;99.90;;;;;;5041914;28;20115;-77
2023/02/05 09:51:10;;;;;;;13.90;0.60;;;6.80;99.90;;;;;;5045112;28;20107;-77
2023/02/05 09:53:42;;;;;;;13.25;0.82;;;6.90;99.90;;;;;;5031761;28;20021;-77
2023/02/05 09:56:12;;;;;;;11.85;1.05;;;6.90;99.90;;;;;;5042106;28;20037;-78
2023/02/05 09:58:46;;;;;;;14.85;0.63;;;6.90;99.90;;;;;;5046648;28;20048;-78
2023/02/05 10:01:38;;;;;;;16.40;0.80;;;6.90;99.90;;;;;;5034665;28;20028;-78
2023/02/05 10:04:06;;;;;;;18.17;1.00;;;6.90;99.90;;;;;;5050877;28;20450;-77
2023/02/05 10:07:04;;;;;;;19.02;1.20;;;6.90;99.90;;;;;;5045108;28;20029;-77
2023/02/05 10:09:30;;;;;;;14.55;1.02;;;6.90;99.90;;;;;;5033537;28;20046;-78
2023/02/05 10:12:27;;;;;;;15.48;1.85;;;6.90;99.90;;;;;;5043849;28;20024;-76
2023/02/05 10:15:10;;;;;;;17.38;1.23;;;7.00;99.90;;;;;;5050152;28;20037;-78
2023/02/05 10:17:48;;;;;;;15.43;0.75;;;7.00;99.90;;;;;;5032448;28;20021;-78
2023/02/05 10:20:40;;;;;;;18.95;0.90;;;7.10;99.90;;;;;;5041105;28;20036;-78
2023/02/05 10:23:25;;;;;;;14.77;1.38;;;7.10;99.90;;;;;;5028252;28;20049;-78
2023/02/05 10:26:11;;;;;;;21.48;1.30;;;7.10;99.90;;;;;;5045270;28;20036;-78
2023/02/05 10:28:51;;;;;;;12.98;0.95;;;7.10;99.90;;;;;;5032262;28;20040;-78
2023/02/05 10:31:29;;;;;;;16.15;1.13;;;7.30;99.90;;;;;;5006345;28;20638;-78
2023/02/05 10:34:16;;;;;;;18.88;1.00;;;7.30;99.90;;;;;;5033193;28;20033;-79
2023/02/05 10:36:43;;;;;;;13.15;1.02;;;7.30;99.90;;;;;;5047805;28;20029;-78
2023/02/05 10:39:14;;;;;;;18.77;1.27;;;7.40;99.90;;;;;;5041712;28;20542;-79
2023/02/05 10:41:58;;;;;;;18.52;1.25;;;7.30;99.90;;;;;;5039816;28;20405;-79
2023/02/05 10:44:36;;;;;;;20.77;0.95;;;7.40;99.90;;;;;;5051449;28;20040;-79
2023/02/05 10:47:58;;;;;;;18.23;1.27;;;7.30;99.90;;;;;;5029114;28;20029;-77
2023/02/05 10:50:50;;;;;;;14.98;1.38;;;7.40;99.90;;;;;;4992878;28;20049;-79
2023/02/05 10:53:20;;;;;;;15.43;1.00;;;7.30;99.90;;;;;;5000633;28;20037;-78
2023/02/05 10:55:46;;;;;;;18.77;1.02;;;7.40;99.90;;;;;;5010350;28;20046;-79
2023/02/05 10:58:21;;;;;;;10.93;0.77;;;7.40;99.90;;;;;;4996676;28;20033;-77
2023/02/05 11:00:46;;;;;;;12.65;0.63;;;7.40;99.90;;;;;;4997747;28;20177;-77
2023/02/05 11:03:17;;;;;;;16.42;0.80;;;7.50;99.90;;;;;;5001697;28;20109;-77
2023/02/05 11:05:45;;;;;;;12.57;0.68;;;7.50;99.90;;;;;;4995507;28;20108;-79
2023/02/05 11:08:31;;;;;;;13.05;0.60;;;7.50;99.90;;;;;;4997283;28;20042;-77
2023/02/05 11:10:57;;;;;;;13.15;0.98;;;7.50;99.90;;;;;;5009645;28;20033;-78
2023/02/05 11:13:23;;;;;;;16.48;0.80;;;7.50;99.90;;;;;;5008538;28;20376;-78
2023/02/05 11:15:57;;;;;;;16.55;1.10;;;7.50;99.90;;;;;;5008318;28;20034;-79
2023/02/05 11:18:26;;;;;;;16.50;1.58;;;7.60;99.90;;;;;;4987133;28;20029;-80
2023/02/05 11:21:00;;;;;;;12.73;0.60;;;7.50;99.90;;;;;;5016653;28;20043;-78
2023/02/05 11:23:37;;;;;;;18.25;1.10;;;7.40;99.90;;;;;;5047996;28;20029;-76
2023/02/05 11:26:17;;;;;;;15.40;1.00;;;7.50;99.90;;;;;;5039356;28;20028;-76
2023/02/05 11:28:43;;;;;;;11.95;0.60;;;7.40;99.90;;;;;;5037540;28;20392;-76
2023/02/05 11:31:25;;;;;;;13.88;0.80;;;7.50;99.90;;;;;;4985520;28;20085;-77
2023/02/05 11:34:09;;;;;;;8.95;0.50;;;7.40;99.90;;;;;;5009888;28;20061;-76
2023/02/05 11:36:36;;;;;;;12.82;0.50;;;7.20;99.90;;;;;;4997528;28;20049;-77
2023/02/05 11:39:04;;;;;;;12.15;0.40;;;7.20;99.90;;;;;;5026886;28;20025;-77
2023/02/05 11:41:46;;;;;;;12.68;0.55;;;7.10;99.90;;;;;;5006718;28;20161;-78
2023/02/05 11:44:23;;;;;;;8.30;0.52;;;7.30;99.90;;;;;;5002682;28;20022;-76
2023/02/05 11:46:55;;;;;;;16.00;0.63;;;7.50;99.90;;;;;;5020489;28;20050;-76
2023/02/05 11:49:34;;;;;;;16.85;0.85;;;7.50;99.90;;;;;;5022342;28;20791;-77
2023/02/05 11:52:08;;;;;;;14.57;0.80;;;7.50;99.90;;;;;;4999392;28;20532;-77
2023/02/05 11:54:35;;;;;;;13.60;0.63;;;7.70;99.90;;;;;;5016956;28;20030;-79
2023/02/05 11:57:26;;;;;;;14.85;1.73;;;7.90;99.90;;;;;;5009165;28;20026;-78
2023/02/05 12:00:00;;;;;;;17.45;1.02;;;7.90;99.90;;;;;;5011140;28;20389;-76
2023/02/05 12:02:28;;;;;;;19.15;1.40;;;7.90;99.90;;;;;;5006517;28;20042;-77
2023/02/05 12:05:02;;;;;;;18.17;1.20;;;8.00;99.90;;;;;;5009212;28;20386;-78
2023/02/05 12:07:38;;;;;;;14.95;1.20;;;8.30;99.90;;;;;;4999825;28;20065;-77
2023/02/05 12:10:13;;;;;;;21.02;1.48;;;8.20;99.90;;;;;;5006807;28;20116;-77
2023/02/05 12:12:53;;;;;;;13.93;1.00;;;8.20;99.90;;;;;;5007205;28;20034;-76
2023/02/05 12:15:22;;;;;;;;;;;8.20;99.90;;;;;;5001196;28;20029;-77
2023/02/05 12:18:14;;;;;;;21.10;1.80;;;8.00;99.90;;;;;;5019104;28;19913;-78
2023/02/05 12:20:54;;;;;;;23.80;2.03;;;8.10;99.90;;;;;;5010141;28;20026;-77
2023/02/05 12:23:50;;;;;;;20.02;1.02;;;7.90;99.90;;;;;;5015655;28;20030;-79
2023/02/05 12:26:29;;;;;;;18.35;2.15;;;7.80;99.90;;;;;;5011392;28;20061;-77
2023/02/05 12:29:28;;;;;;;21.13;2.55;;;7.70;99.90;;;;;;5013722;28;20055;-78
2023/02/05 12:32:15;;;;;;;33.33;1.40;;;7.60;99.90;;;;;;5005169;28;20046;-76
2023/02/05 12:35:11;;;;;;;17.58;1.00;;;7.40;99.90;;;;;;5014612;28;20029;-77
2023/02/05 12:38:02;;;;;;;18.90;1.33;;;7.40;99.90;;;;;;5005347;28;20025;-77
2023/02/05 12:40:57;;;;;;;20.50;1.60;;;7.20;99.90;;;;;;5019902;28;20049;-77
2023/02/05 12:43:42;;;;;;;19.60;1.10;;;7.20;99.90;;;;;;5006811;28;20575;-76
2023/02/05 12:46:20;;;;;;;16.45;1.67;;;7.30;99.90;;;;;;5018247;28;20080;-77
2023/02/05 12:49:32;;;;;;;15.60;1.10;;;7.30;99.90;;;;;;5000057;28;20050;-77
2023/02/05 12:51:58;;;;;;;17.95;1.60;;;7.40;99.90;;;;;;5005474;28;20065;-77
2023/02/05 12:54:53;;;;;;;17.88;1.25;;;7.30;99.90;;;;;;5008909;28;20085;-77
2023/02/05 12:57:23;;;;;;;17.13;1.00;;;7.30;99.90;;;;;;5012944;28;20370;-76
2023/02/05 12:59:59;;;;;;;14.63;0.93;;;7.20;99.90;;;;;;5018595;28;20474;-77
2023/02/05 13:03:02;;;;;;;13.65;0.60;;;7.30;99.90;;;;;;5014067;28;20037;-76
2023/02/05 13:06:02;;;;;;;23.63;1.15;;;7.40;99.90;;;;;;5012311;28;20037;-77
2023/02/05 13:08:35;;;;;;;18.27;1.38;;;7.60;99.90;;;;;;5006411;28;20053;-76
2023/02/05 13:11:12;;;;;;;15.45;1.38;;;7.80;99.90;;;;;;5016961;28;20022;-76